sensor_id;sensor_type;location;lat;lon;timestamp;temperature;humidity
13970;DHT22;7057;49.984;8.404;2022-10-30T00:01:54;13.00;99.90
13970;DHT22;7057;49.984;8.404;2022-10-30T00:04:21;12.90;99.90
13970;DHT22;7057;49.984;8.404;2022-10-30T00:06:48;12.80;99.90
13970;DHT22;7057;49.984;8.404;2022-10-30T00:09:15;12.90;99.90
13970;DHT22;7057;49.984;8.404;2022-10-30T00:11:44;12.90;99.90
13970;DHT22;7057;49.984;8.404;2022-10-30T00:14:11;12.80;99.90
13970;DHT22;7057;49.984;8.404;2022-10-30T00:16:38;12.70;99.90
13970;DHT22;7057;49.984;8.404;2022-10-30T00:19:06;12.70;99.90
13970;DHT22;7057;49.984;8.404;2022-10-30T00:21:33;12.70;99.90
13970;DHT22;7057;49.984;8.404;2022-10-30T00:24:00;12.70;99.90
13970;DHT22;7057;49.984;8.404;2022-10-30T00:26:27;12.60;99.90
13970;DHT22;7057;49.984;8.404;2022-10-30T00:28:56;12.60;99.90
13970;DHT22;7057;49.984;8.404;2022-10-30T00:31:23;12.60;99.90
13970;DHT22;7057;49.984;8.404;2022-10-30T00:33:51;12.60;99.90
13970;DHT22;7057;49.984;8.404;2022-10-30T00:36:20;11.80;99.90
13970;DHT22;7057;49.984;8.404;2022-10-30T00:38:47;12.60;99.90
13970;DHT22;7057;49.984;8.404;2022-10-30T00:41:15;12.60;99.90
13970;DHT22;7057;49.984;8.404;2022-10-30T00:43:43;12.50;99.90
13970;DHT22;7057;49.984;8.404;2022-10-30T00:46:17;12.50;99.90
13970;DHT22;7057;49.984;8.404;2022-10-30T00:48:49;12.50;99.90
13970;DHT22;7057;49.984;8.404;2022-10-30T00:51:19;12.50;99.90
13970;DHT22;7057;49.984;8.404;2022-10-30T00:53:47;12.50;99.90
13970;DHT22;7057;49.984;8.404;2022-10-30T00:56:17;12.50;99.90
13970;DHT22;7057;49.984;8.404;2022-10-30T00:58:48;12.40;99.90
13970;DHT22;7057;49.984;8.404;2022-10-30T01:01:22;12.50;99.90
13970;DHT22;7057;49.984;8.404;2022-10-30T01:03:53;12.40;99.90
13970;DHT22;7057;49.984;8.404;2022-10-30T01:06:22;12.40;99.90
13970;DHT22;7057;49.984;8.404;2022-10-30T01:08:50;12.40;99.90
13970;DHT22;7057;49.984;8.404;2022-10-30T01:11:17;12.40;99.90
13970;DHT22;7057;49.984;8.404;2022-10-30T01:13:46;12.40;99.90
13970;DHT22;7057;49.984;8.404;2022-10-30T01:16:31;12.40;99.90
13970;DHT22;7057;49.984;8.404;2022-10-30T01:19:06;12.40;99.90
13970;DHT22;7057;49.984;8.404;2022-10-30T01:21:47;12.40;99.90
13970;DHT22;7057;49.984;8.404;2022-10-30T01:24:27;12.40;99.90
13970;DHT22;7057;49.984;8.404;2022-10-30T01:27:07;12.40;99.90
13970;DHT22;7057;49.984;8.404;2022-10-30T01:29:49;12.40;99.90
13970;DHT22;7057;49.984;8.404;2022-10-30T01:32:36;12.30;99.90
13970;DHT22;7057;49.984;8.404;2022-10-30T01:35:07;12.30;99.90
13970;DHT22;7057;49.984;8.404;2022-10-30T01:37:40;12.30;99.90
13970;DHT22;7057;49.984;8.404;2022-10-30T01:40:15;12.20;99.90
13970;DHT22;7057;49.984;8.404;2022-10-30T01:42:47;12.20;99.90
13970;DHT22;7057;49.984;8.404;2022-10-30T01:45:19;12.10;99.90
13970;DHT22;7057;49.984;8.404;2022-10-30T01:47:59;12.10;99.90
13970;DHT22;7057;49.984;8.404;2022-10-30T01:50:37;12.10;99.90
13970;DHT22;7057;49.984;8.404;2022-10-30T01:53:15;12.10;99.90
13970;DHT22;7057;49.984;8.404;2022-10-30T01:55:52;12.10;99.90
13970;DHT22;7057;49.984;8.404;2022-10-30T01:58:25;12.10;99.90
13970;DHT22;7057;49.984;8.404;2022-10-30T02:00:56;12.10;99.90
13970;DHT22;7057;49.984;8.404;2022-10-30T02:03:26;12.10;99.90
13970;DHT22;7057;49.984;8.404;2022-10-30T02:05:54;12.00;99.90
13970;DHT22;7057;49.984;8.404;2022-10-30T02:08:21;12.00;99.90
13970;DHT22;7057;49.984;8.404;2022-10-30T02:10:50;12.00;99.90
13970;DHT22;7057;49.984;8.404;2022-10-30T02:13:18;12.00;99.90
13970;DHT22;7057;49.984;8.404;2022-10-30T02:15:46;12.10;99.90
13970;DHT22;7057;49.984;8.404;2022-10-30T02:18:13;12.00;99.90
13970;DHT22;7057;49.984;8.404;2022-10-30T02:20:42;12.00;99.90
13970;DHT22;7057;49.984;8.404;2022-10-30T02:23:09;12.00;99.90
13970;DHT22;7057;49.984;8.404;2022-10-30T02:25:41;12.10;99.90
13970;DHT22;7057;49.984;8.404;2022-10-30T02:28:08;12.10;99.90
13970;DHT22;7057;49.984;8.404;2022-10-30T02:30:35;12.10;99.90
13970;DHT22;7057;49.984;8.404;2022-10-30T02:33:03;12.10;99.90
13970;DHT22;7057;49.984;8.404;2022-10-30T02:35:30;12.10;99.90
13970;DHT22;7057;49.984;8.404;2022-10-30T02:37:59;12.10;99.90
13970;DHT22;7057;49.984;8.404;2022-10-30T02:40:26;12.20;99.90
13970;DHT22;7057;49.984;8.404;2022-10-30T02:42:53;12.20;99.90
13970;DHT22;7057;49.984;8.404;2022-10-30T02:45:21;12.20;99.90
13970;DHT22;7057;49.984;8.404;2022-10-30T02:47:48;12.20;99.90
13970;DHT22;7057;49.984;8.404;2022-10-30T02:50:16;12.20;99.90
13970;DHT22;7057;49.984;8.404;2022-10-30T02:52:43;12.20;99.90
13970;DHT22;7057;49.984;8.404;2022-10-30T02:55:11;12.20;99.90
13970;DHT22;7057;49.984;8.404;2022-10-30T02:57:38;12.30;99.90
13970;DHT22;7057;49.984;8.404;2022-10-30T03:00:06;12.20;99.90
13970;DHT22;7057;49.984;8.404;2022-10-30T03:02:34;12.30;99.90
13970;DHT22;7057;49.984;8.404;2022-10-30T03:05:01;12.30;99.90
13970;DHT22;7057;49.984;8.404;2022-10-30T03:07:28;12.30;99.90
13970;DHT22;7057;49.984;8.404;2022-10-30T03:09:55;12.30;99.90
13970;DHT22;7057;49.984;8.404;2022-10-30T03:12:24;12.40;99.90
13970;DHT22;7057;49.984;8.404;2022-10-30T03:14:51;12.30;99.90
13970;DHT22;7057;49.984;8.404;2022-10-30T03:17:18;12.30;99.90
13970;DHT22;7057;49.984;8.404;2022-10-30T03:19:45;12.20;99.90
13970;DHT22;7057;49.984;8.404;2022-10-30T03:22:13;12.30;99.90
13970;DHT22;7057;49.984;8.404;2022-10-30T03:24:40;12.30;99.90
13970;DHT22;7057;49.984;8.404;2022-10-30T03:27:07;12.30;99.90
13970;DHT22;7057;49.984;8.404;2022-10-30T03:29:35;12.20;99.90
13970;DHT22;7057;49.984;8.404;2022-10-30T03:32:03;12.20;99.90
13970;DHT22;7057;49.984;8.404;2022-10-30T03:34:30;12.20;99.90
13970;DHT22;7057;49.984;8.404;2022-10-30T03:36:57;12.20;99.90
13970;DHT22;7057;49.984;8.404;2022-10-30T03:39:25;12.10;99.90
13970;DHT22;7057;49.984;8.404;2022-10-30T03:41:52;12.20;99.90
13970;DHT22;7057;49.984;8.404;2022-10-30T03:44:19;12.20;99.90
13970;DHT22;7057;49.984;8.404;2022-10-30T03:46:48;12.20;99.90
13970;DHT22;7057;49.984;8.404;2022-10-30T03:49:15;12.10;99.90
13970;DHT22;7057;49.984;8.404;2022-10-30T03:51:42;12.10;99.90
13970;DHT22;7057;49.984;8.404;2022-10-30T03:54:09;12.10;99.90
13970;DHT22;7057;49.984;8.404;2022-10-30T03:56:36;12.00;99.90
13970;DHT22;7057;49.984;8.404;2022-10-30T03:59:03;12.00;99.90
13970;DHT22;7057;49.984;8.404;2022-10-30T04:01:31;11.90;99.90
13970;DHT22;7057;49.984;8.404;2022-10-30T04:03:59;12.00;99.90
13970;DHT22;7057;49.984;8.404;2022-10-30T04:06:26;12.00;99.90
13970;DHT22;7057;49.984;8.404;2022-10-30T04:08:54;12.00;99.90
13970;DHT22;7057;49.984;8.404;2022-10-30T04:11:21;12.00;99.90
13970;DHT22;7057;49.984;8.404;2022-10-30T04:13:48;12.00;99.90
13970;DHT22;7057;49.984;8.404;2022-10-30T04:16:15;12.00;99.90
13970;DHT22;7057;49.984;8.404;2022-10-30T04:18:42;12.00;99.90
13970;DHT22;7057;49.984;8.404;2022-10-30T04:21:11;11.90;99.90
13970;DHT22;7057;49.984;8.404;2022-10-30T04:23:38;11.90;99.90
13970;DHT22;7057;49.984;8.404;2022-10-30T04:26:05;11.90;99.90
13970;DHT22;7057;49.984;8.404;2022-10-30T04:28:32;11.90;99.90
13970;DHT22;7057;49.984;8.404;2022-10-30T04:31:00;11.80;99.90
13970;DHT22;7057;49.984;8.404;2022-10-30T04:33:27;11.90;99.90
13970;DHT22;7057;49.984;8.404;2022-10-30T04:35:54;11.80;99.90
13970;DHT22;7057;49.984;8.404;2022-10-30T04:38:23;11.90;99.90
13970;DHT22;7057;49.984;8.404;2022-10-30T04:40:50;11.70;99.90
13970;DHT22;7057;49.984;8.404;2022-10-30T04:43:17;11.70;99.90
13970;DHT22;7057;49.984;8.404;2022-10-30T04:45:44;11.70;99.90
13970;DHT22;7057;49.984;8.404;2022-10-30T04:48:13;11.60;99.90
13970;DHT22;7057;49.984;8.404;2022-10-30T04:50:41;11.60;99.90
13970;DHT22;7057;49.984;8.404;2022-10-30T04:53:11;11.60;99.90
13970;DHT22;7057;49.984;8.404;2022-10-30T04:55:40;11.50;99.90
13970;DHT22;7057;49.984;8.404;2022-10-30T04:58:10;11.50;99.90
13970;DHT22;7057;49.984;8.404;2022-10-30T05:00:37;11.50;99.90
13970;DHT22;7057;49.984;8.404;2022-10-30T05:03:04;11.40;99.90
13970;DHT22;7057;49.984;8.404;2022-10-30T05:05:32;11.40;99.90
13970;DHT22;7057;49.984;8.404;2022-10-30T05:07:59;11.30;99.90
13970;DHT22;7057;49.984;8.404;2022-10-30T05:10:26;11.30;99.90
13970;DHT22;7057;49.984;8.404;2022-10-30T05:12:54;11.40;99.90
13970;DHT22;7057;49.984;8.404;2022-10-30T05:15:22;11.40;99.90
13970;DHT22;7057;49.984;8.404;2022-10-30T05:17:50;11.30;99.90
13970;DHT22;7057;49.984;8.404;2022-10-30T05:20:18;11.30;99.90
13970;DHT22;7057;49.984;8.404;2022-10-30T05:22:52;11.20;99.90
13970;DHT22;7057;49.984;8.404;2022-10-30T05:25:19;11.20;99.90
13970;DHT22;7057;49.984;8.404;2022-10-30T05:27:46;11.20;99.90
13970;DHT22;7057;49.984;8.404;2022-10-30T05:30:15;11.10;99.90
13970;DHT22;7057;49.984;8.404;2022-10-30T05:32:42;11.10;99.90
13970;DHT22;7057;49.984;8.404;2022-10-30T05:35:09;11.10;99.90
13970;DHT22;7057;49.984;8.404;2022-10-30T05:37:37;11.10;99.90
13970;DHT22;7057;49.984;8.404;2022-10-30T05:40:05;11.00;99.90
13970;DHT22;7057;49.984;8.404;2022-10-30T05:42:32;11.00;99.90
13970;DHT22;7057;49.984;8.404;2022-10-30T05:44:59;11.00;99.90
13970;DHT22;7057;49.984;8.404;2022-10-30T05:47:28;10.90;99.90
13970;DHT22;7057;49.984;8.404;2022-10-30T05:49:55;10.90;99.90
13970;DHT22;7057;49.984;8.404;2022-10-30T05:52:22;10.90;99.90
13970;DHT22;7057;49.984;8.404;2022-10-30T05:54:49;10.90;99.90
13970;DHT22;7057;49.984;8.404;2022-10-30T05:57:17;10.90;99.90
13970;DHT22;7057;49.984;8.404;2022-10-30T05:59:44;10.90;99.90
13970;DHT22;7057;49.984;8.404;2022-10-30T06:02:11;10.80;99.90
13970;DHT22;7057;49.984;8.404;2022-10-30T06:04:40;10.90;99.90
13970;DHT22;7057;49.984;8.404;2022-10-30T06:07:07;10.80;99.90
13970;DHT22;7057;49.984;8.404;2022-10-30T06:09:34;10.80;99.90
13970;DHT22;7057;49.984;8.404;2022-10-30T06:12:01;10.80;99.90
13970;DHT22;7057;49.984;8.404;2022-10-30T06:14:28;10.80;99.90
13970;DHT22;7057;49.984;8.404;2022-10-30T06:16:56;10.80;99.90
13970;DHT22;7057;49.984;8.404;2022-10-30T06:19:23;10.90;99.90
13970;DHT22;7057;49.984;8.404;2022-10-30T06:21:51;10.90;99.90
13970;DHT22;7057;49.984;8.404;2022-10-30T06:24:19;11.00;99.90
13970;DHT22;7057;49.984;8.404;2022-10-30T06:26:47;11.00;99.90
13970;DHT22;7057;49.984;8.404;2022-10-30T06:29:14;11.10;99.90
13970;DHT22;7057;49.984;8.404;2022-10-30T06:31:41;11.20;99.90
13970;DHT22;7057;49.984;8.404;2022-10-30T06:34:08;11.20;99.90
13970;DHT22;7057;49.984;8.404;2022-10-30T06:36:35;11.30;99.90
13970;DHT22;7057;49.984;8.404;2022-10-30T06:39:04;11.30;99.90
13970;DHT22;7057;49.984;8.404;2022-10-30T06:41:31;11.40;99.90
13970;DHT22;7057;49.984;8.404;2022-10-30T06:43:59;11.50;99.90
13970;DHT22;7057;49.984;8.404;2022-10-30T06:46:26;11.50;99.90
13970;DHT22;7057;49.984;8.404;2022-10-30T06:48:54;11.60;99.90
13970;DHT22;7057;49.984;8.404;2022-10-30T06:51:21;11.60;99.90
13970;DHT22;7057;49.984;8.404;2022-10-30T06:53:48;11.60;99.90
13970;DHT22;7057;49.984;8.404;2022-10-30T06:56:17;11.70;99.90
13970;DHT22;7057;49.984;8.404;2022-10-30T06:58:44;11.70;99.90
13970;DHT22;7057;49.984;8.404;2022-10-30T07:01:11;11.80;99.90
13970;DHT22;7057;49.984;8.404;2022-10-30T07:03:38;11.90;99.90
13970;DHT22;7057;49.984;8.404;2022-10-30T07:06:06;11.90;99.90
13970;DHT22;7057;49.984;8.404;2022-10-30T07:08:33;12.00;99.90
13970;DHT22;7057;49.984;8.404;2022-10-30T07:11:00;12.00;99.90
13970;DHT22;7057;49.984;8.404;2022-10-30T07:13:29;12.00;99.90
13970;DHT22;7057;49.984;8.404;2022-10-30T07:15:57;12.10;99.90
13970;DHT22;7057;49.984;8.404;2022-10-30T07:18:24;12.20;99.90
13970;DHT22;7057;49.984;8.404;2022-10-30T07:20:53;12.30;99.90
13970;DHT22;7057;49.984;8.404;2022-10-30T07:23:21;12.30;99.90
13970;DHT22;7057;49.984;8.404;2022-10-30T07:25:48;12.40;99.90
13970;DHT22;7057;49.984;8.404;2022-10-30T07:28:15;12.50;99.90
13970;DHT22;7057;49.984;8.404;2022-10-30T07:30:43;12.60;99.90
13970;DHT22;7057;49.984;8.404;2022-10-30T07:33:11;12.70;99.90
13970;DHT22;7057;49.984;8.404;2022-10-30T07:35:38;12.70;99.90
13970;DHT22;7057;49.984;8.404;2022-10-30T07:38:06;12.70;99.90
13970;DHT22;7057;49.984;8.404;2022-10-30T07:40:34;12.80;99.90
13970;DHT22;7057;49.984;8.404;2022-10-30T07:43:02;12.90;99.90
13970;DHT22;7057;49.984;8.404;2022-10-30T07:45:30;13.00;99.90
13970;DHT22;7057;49.984;8.404;2022-10-30T07:47:59;13.10;99.90
13970;DHT22;7057;49.984;8.404;2022-10-30T07:50:26;13.10;99.90
13970;DHT22;7057;49.984;8.404;2022-10-30T07:52:53;13.20;99.90
13970;DHT22;7057;49.984;8.404;2022-10-30T07:55:20;13.20;99.90
13970;DHT22;7057;49.984;8.404;2022-10-30T07:57:48;13.30;99.90
13970;DHT22;7057;49.984;8.404;2022-10-30T08:00:16;13.30;99.90
13970;DHT22;7057;49.984;8.404;2022-10-30T08:02:43;13.40;99.90
13970;DHT22;7057;49.984;8.404;2022-10-30T08:05:16;13.50;99.90
13970;DHT22;7057;49.984;8.404;2022-10-30T08:07:45;13.50;99.90
13970;DHT22;7057;49.984;8.404;2022-10-30T08:10:13;13.50;99.90
13970;DHT22;7057;49.984;8.404;2022-10-30T08:12:40;13.60;99.90
13970;DHT22;7057;49.984;8.404;2022-10-30T08:15:09;13.70;99.90
13970;DHT22;7057;49.984;8.404;2022-10-30T08:17:40;13.70;99.90
13970;DHT22;7057;49.984;8.404;2022-10-30T08:20:09;13.70;99.90
13970;DHT22;7057;49.984;8.404;2022-10-30T08:22:44;13.80;99.90
13970;DHT22;7057;49.984;8.404;2022-10-30T08:25:12;13.90;99.90
13970;DHT22;7057;49.984;8.404;2022-10-30T08:27:47;14.10;99.90
13970;DHT22;7057;49.984;8.404;2022-10-30T08:30:14;14.20;99.90
13970;DHT22;7057;49.984;8.404;2022-10-30T08:32:42;14.30;99.90
13970;DHT22;7057;49.984;8.404;2022-10-30T08:35:09;14.30;99.90
13970;DHT22;7057;49.984;8.404;2022-10-30T08:37:36;14.30;99.90
13970;DHT22;7057;49.984;8.404;2022-10-30T08:40:06;14.50;99.90
13970;DHT22;7057;49.984;8.404;2022-10-30T08:42:34;14.60;99.90
13970;DHT22;7057;49.984;8.404;2022-10-30T08:45:01;14.80;99.90
13970;DHT22;7057;49.984;8.404;2022-10-30T08:47:28;15.00;99.90
13970;DHT22;7057;49.984;8.404;2022-10-30T08:49:55;15.10;99.90
13970;DHT22;7057;49.984;8.404;2022-10-30T08:52:22;15.20;99.90
13970;DHT22;7057;49.984;8.404;2022-10-30T08:54:49;15.30;99.90
13970;DHT22;7057;49.984;8.404;2022-10-30T08:57:18;15.40;99.90
13970;DHT22;7057;49.984;8.404;2022-10-30T08:59:45;15.50;99.90
13970;DHT22;7057;49.984;8.404;2022-10-30T09:02:12;15.60;99.90
13970;DHT22;7057;49.984;8.404;2022-10-30T09:04:40;15.70;99.90
13970;DHT22;7057;49.984;8.404;2022-10-30T09:07:07;15.80;99.90
13970;DHT22;7057;49.984;8.404;2022-10-30T09:09:34;15.80;99.90
13970;DHT22;7057;49.984;8.404;2022-10-30T09:12:01;15.90;99.90
13970;DHT22;7057;49.984;8.404;2022-10-30T09:14:30;16.00;99.90
13970;DHT22;7057;49.984;8.404;2022-10-30T09:16:58;16.00;99.90
13970;DHT22;7057;49.984;8.404;2022-10-30T09:19:25;16.10;99.90
13970;DHT22;7057;49.984;8.404;2022-10-30T09:21:53;16.20;99.90
13970;DHT22;7057;49.984;8.404;2022-10-30T09:24:20;16.20;99.90
13970;DHT22;7057;49.984;8.404;2022-10-30T09:26:47;16.10;99.90
13970;DHT22;7057;49.984;8.404;2022-10-30T09:29:15;16.30;99.90
13970;DHT22;7057;49.984;8.404;2022-10-30T09:31:43;16.30;99.90
13970;DHT22;7057;49.984;8.404;2022-10-30T09:34:10;16.50;99.90
13970;DHT22;7057;49.984;8.404;2022-10-30T09:36:38;16.50;99.90
13970;DHT22;7057;49.984;8.404;2022-10-30T09:39:05;16.40;99.90
13970;DHT22;7057;49.984;8.404;2022-10-30T09:41:48;16.50;99.90
13970;DHT22;7057;49.984;8.404;2022-10-30T09:44:24;16.60;99.90
13970;DHT22;7057;49.984;8.404;2022-10-30T09:47:10;16.50;99.90
13970;DHT22;7057;49.984;8.404;2022-10-30T09:49:59;16.60;99.90
13970;DHT22;7057;49.984;8.404;2022-10-30T09:52:34;16.70;99.90
13970;DHT22;7057;49.984;8.404;2022-10-30T09:55:15;16.80;99.90
13970;DHT22;7057;49.984;8.404;2022-10-30T09:57:50;16.80;99.90
13970;DHT22;7057;49.984;8.404;2022-10-30T10:00:20;17.00;99.90
13970;DHT22;7057;49.984;8.404;2022-10-30T10:03:02;17.20;99.90
13970;DHT22;7057;49.984;8.404;2022-10-30T10:05:40;17.30;99.90
13970;DHT22;7057;49.984;8.404;2022-10-30T10:08:11;17.30;99.90
13970;DHT22;7057;49.984;8.404;2022-10-30T10:10:42;17.40;99.90
13970;DHT22;7057;49.984;8.404;2022-10-30T10:13:16;17.40;99.90
13970;DHT22;7057;49.984;8.404;2022-10-30T10:15:49;17.50;99.90
13970;DHT22;7057;49.984;8.404;2022-10-30T10:18:22;17.60;99.90
13970;DHT22;7057;49.984;8.404;2022-10-30T10:20:52;17.60;99.90
13970;DHT22;7057;49.984;8.404;2022-10-30T10:23:29;17.20;99.90
13970;DHT22;7057;49.984;8.404;2022-10-30T10:25:59;17.20;99.90
13970;DHT22;7057;49.984;8.404;2022-10-30T10:28:50;17.20;99.90
13970;DHT22;7057;49.984;8.404;2022-10-30T10:31:31;17.30;99.90
13970;DHT22;7057;49.984;8.404;2022-10-30T10:34:14;17.30;99.90
13970;DHT22;7057;49.984;8.404;2022-10-30T10:36:45;17.50;99.90
13970;DHT22;7057;49.984;8.404;2022-10-30T10:39:26;17.40;99.90
13970;DHT22;7057;49.984;8.404;2022-10-30T10:42:08;17.50;99.90
13970;DHT22;7057;49.984;8.404;2022-10-30T10:44:48;17.40;99.90
13970;DHT22;7057;49.984;8.404;2022-10-30T10:47:36;17.50;99.90
13970;DHT22;7057;49.984;8.404;2022-10-30T10:50:17;18.10;99.90
13970;DHT22;7057;49.984;8.404;2022-10-30T10:52:49;17.80;99.90
13970;DHT22;7057;49.984;8.404;2022-10-30T10:55:21;17.90;99.90
13970;DHT22;7057;49.984;8.404;2022-10-30T10:57:51;18.10;99.90
13970;DHT22;7057;49.984;8.404;2022-10-30T11:00:21;18.30;99.90
13970;DHT22;7057;49.984;8.404;2022-10-30T11:02:55;18.20;99.90
13970;DHT22;7057;49.984;8.404;2022-10-30T11:05:31;18.10;99.90
13970;DHT22;7057;49.984;8.404;2022-10-30T11:08:08;18.20;99.90
13970;DHT22;7057;49.984;8.404;2022-10-30T11:10:37;18.30;99.90
13970;DHT22;7057;49.984;8.404;2022-10-30T11:13:04;18.30;99.90
13970;DHT22;7057;49.984;8.404;2022-10-30T11:15:46;18.50;99.90
13970;DHT22;7057;49.984;8.404;2022-10-30T11:18:16;18.30;99.90
13970;DHT22;7057;49.984;8.404;2022-10-30T11:20:53;18.40;99.90
13970;DHT22;7057;49.984;8.404;2022-10-30T11:23:32;18.40;99.90
13970;DHT22;7057;49.984;8.404;2022-10-30T11:26:00;18.30;99.90
13970;DHT22;7057;49.984;8.404;2022-10-30T11:28:35;18.30;99.90
13970;DHT22;7057;49.984;8.404;2022-10-30T11:31:19;18.40;99.90
13970;DHT22;7057;49.984;8.404;2022-10-30T11:33:47;18.50;99.90
13970;DHT22;7057;49.984;8.404;2022-10-30T11:36:18;18.50;99.90
13970;DHT22;7057;49.984;8.404;2022-10-30T11:38:47;18.50;99.90
13970;DHT22;7057;49.984;8.404;2022-10-30T11:41:15;18.70;99.90
13970;DHT22;7057;49.984;8.404;2022-10-30T11:43:43;18.80;99.90
13970;DHT22;7057;49.984;8.404;2022-10-30T11:46:19;19.00;99.90
13970;DHT22;7057;49.984;8.404;2022-10-30T11:48:47;19.10;99.90
13970;DHT22;7057;49.984;8.404;2022-10-30T11:51:38;19.30;99.90
13970;DHT22;7057;49.984;8.404;2022-10-30T11:54:06;19.40;99.90
13970;DHT22;7057;49.984;8.404;2022-10-30T11:56:34;19.50;99.90
13970;DHT22;7057;49.984;8.404;2022-10-30T11:59:02;19.60;99.90
13970;DHT22;7057;49.984;8.404;2022-10-30T12:01:33;19.50;99.90
13970;DHT22;7057;49.984;8.404;2022-10-30T12:04:14;19.30;99.90
13970;DHT22;7057;49.984;8.404;2022-10-30T12:06:43;19.40;99.90
13970;DHT22;7057;49.984;8.404;2022-10-30T12:09:11;19.50;99.90
13970;DHT22;7057;49.984;8.404;2022-10-30T12:11:40;19.40;99.90
13970;DHT22;7057;49.984;8.404;2022-10-30T12:14:16;19.10;99.90
13970;DHT22;7057;49.984;8.404;2022-10-30T12:16:45;19.20;99.90
13970;DHT22;7057;49.984;8.404;2022-10-30T12:19:13;19.30;99.90
13970;DHT22;7057;49.984;8.404;2022-10-30T12:21:45;19.40;99.90
13970;DHT22;7057;49.984;8.404;2022-10-30T12:24:17;19.50;99.90
13970;DHT22;7057;49.984;8.404;2022-10-30T12:26:46;19.60;99.90
13970;DHT22;7057;49.984;8.404;2022-10-30T12:29:16;19.80;99.90
13970;DHT22;7057;49.984;8.404;2022-10-30T12:31:49;19.90;99.90
13970;DHT22;7057;49.984;8.404;2022-10-30T12:34:40;20.00;99.90
13970;DHT22;7057;49.984;8.404;2022-10-30T12:37:17;20.10;99.90
13970;DHT22;7057;49.984;8.404;2022-10-30T12:39:54;20.20;99.90
13970;DHT22;7057;49.984;8.404;2022-10-30T12:42:22;20.30;99.90
13970;DHT22;7057;49.984;8.404;2022-10-30T12:44:57;20.50;99.90
13970;DHT22;7057;49.984;8.404;2022-10-30T12:47:28;20.40;99.90
13970;DHT22;7057;49.984;8.404;2022-10-30T12:50:01;20.40;99.90
13970;DHT22;7057;49.984;8.404;2022-10-30T12:52:34;20.50;99.90
13970;DHT22;7057;49.984;8.404;2022-10-30T12:55:11;20.50;99.90
13970;DHT22;7057;49.984;8.404;2022-10-30T12:57:43;20.60;99.90
13970;DHT22;7057;49.984;8.404;2022-10-30T13:00:14;20.60;99.90
13970;DHT22;7057;49.984;8.404;2022-10-30T13:02:49;20.70;99.90
13970;DHT22;7057;49.984;8.404;2022-10-30T13:05:27;20.80;99.90
13970;DHT22;7057;49.984;8.404;2022-10-30T13:08:13;20.80;99.90
13970;DHT22;7057;49.984;8.404;2022-10-30T13:10:45;20.90;99.90
13970;DHT22;7057;49.984;8.404;2022-10-30T13:13:19;20.90;99.90
13970;DHT22;7057;49.984;8.404;2022-10-30T13:15:49;20.80;99.90
13970;DHT22;7057;49.984;8.404;2022-10-30T13:18:18;20.80;99.90
13970;DHT22;7057;49.984;8.404;2022-10-30T13:21:01;20.90;99.90
13970;DHT22;7057;49.984;8.404;2022-10-30T13:23:38;20.70;99.90
13970;DHT22;7057;49.984;8.404;2022-10-30T13:26:13;20.80;99.90
13970;DHT22;7057;49.984;8.404;2022-10-30T13:28:46;20.80;99.90
13970;DHT22;7057;49.984;8.404;2022-10-30T13:31:21;20.70;99.90
13970;DHT22;7057;49.984;8.404;2022-10-30T13:33:57;20.70;99.90
13970;DHT22;7057;49.984;8.404;2022-10-30T13:36:31;20.80;99.90
13970;DHT22;7057;49.984;8.404;2022-10-30T13:39:13;21.00;99.90
13970;DHT22;7057;49.984;8.404;2022-10-30T13:41:55;21.10;99.90
13970;DHT22;7057;49.984;8.404;2022-10-30T13:44:29;21.20;99.90
13970;DHT22;7057;49.984;8.404;2022-10-30T13:47:07;21.20;99.90
13970;DHT22;7057;49.984;8.404;2022-10-30T13:49:53;21.20;99.90
13970;DHT22;7057;49.984;8.404;2022-10-30T13:52:23;21.20;99.90
13970;DHT22;7057;49.984;8.404;2022-10-30T13:54:57;21.20;99.90
13970;DHT22;7057;49.984;8.404;2022-10-30T13:57:31;21.20;99.90
13970;DHT22;7057;49.984;8.404;2022-10-30T14:00:04;21.20;99.90
13970;DHT22;7057;49.984;8.404;2022-10-30T14:02:46;21.10;99.90
13970;DHT22;7057;49.984;8.404;2022-10-30T14:05:27;21.00;99.90
13970;DHT22;7057;49.984;8.404;2022-10-30T14:08:05;21.10;99.90
13970;DHT22;7057;49.984;8.404;2022-10-30T14:10:53;21.10;99.90
13970;DHT22;7057;49.984;8.404;2022-10-30T14:13:23;21.20;99.90
13970;DHT22;7057;49.984;8.404;2022-10-30T14:15:55;21.20;99.90
13970;DHT22;7057;49.984;8.404;2022-10-30T14:18:45;21.20;99.90
13970;DHT22;7057;49.984;8.404;2022-10-30T14:21:37;21.20;99.90
13970;DHT22;7057;49.984;8.404;2022-10-30T14:24:13;21.10;99.90
13970;DHT22;7057;49.984;8.404;2022-10-30T14:26:47;21.10;99.90
13970;DHT22;7057;49.984;8.404;2022-10-30T14:29:44;21.00;99.90
13970;DHT22;7057;49.984;8.404;2022-10-30T14:32:48;20.90;99.90
13970;DHT22;7057;49.984;8.404;2022-10-30T14:35:33;20.90;99.90
13970;DHT22;7057;49.984;8.404;2022-10-30T14:38:34;20.90;99.90
13970;DHT22;7057;49.984;8.404;2022-10-30T14:44:34;20.90;99.90
13970;DHT22;7057;49.984;8.404;2022-10-30T14:47:31;20.70;99.90
13970;DHT22;7057;49.984;8.404;2022-10-30T14:50:02;20.70;99.90
13970;DHT22;7057;49.984;8.404;2022-10-30T14:52:38;20.70;99.90
13970;DHT22;7057;49.984;8.404;2022-10-30T14:55:27;20.60;99.90
13970;DHT22;7057;49.984;8.404;2022-10-30T14:58:15;20.70;99.90
13970;DHT22;7057;49.984;8.404;2022-10-30T15:00:44;20.70;99.90
13970;DHT22;7057;49.984;8.404;2022-10-30T15:03:25;20.90;99.90
13970;DHT22;7057;49.984;8.404;2022-10-30T15:05:59;20.70;99.90
13970;DHT22;7057;49.984;8.404;2022-10-30T15:08:41;20.70;99.90
13970;DHT22;7057;49.984;8.404;2022-10-30T15:11:30;20.60;99.90
13970;DHT22;7057;49.984;8.404;2022-10-30T15:14:03;20.50;99.90
13970;DHT22;7057;49.984;8.404;2022-10-30T15:16:37;20.50;99.90
13970;DHT22;7057;49.984;8.404;2022-10-30T15:19:07;20.50;99.90
13970;DHT22;7057;49.984;8.404;2022-10-30T15:21:40;20.40;99.90
13970;DHT22;7057;49.984;8.404;2022-10-30T15:24:12;20.30;99.90
13970;DHT22;7057;49.984;8.404;2022-10-30T15:26:43;20.30;99.90
13970;DHT22;7057;49.984;8.404;2022-10-30T15:29:15;20.20;99.90
13970;DHT22;7057;49.984;8.404;2022-10-30T15:31:56;20.20;99.90
13970;DHT22;7057;49.984;8.404;2022-10-30T15:34:25;20.10;99.90
13970;DHT22;7057;49.984;8.404;2022-10-30T15:36:52;20.00;99.90
13970;DHT22;7057;49.984;8.404;2022-10-30T15:39:20;19.90;99.90
13970;DHT22;7057;49.984;8.404;2022-10-30T15:41:49;19.80;99.90
13970;DHT22;7057;49.984;8.404;2022-10-30T15:44:19;19.70;99.90
13970;DHT22;7057;49.984;8.404;2022-10-30T15:46:50;19.70;99.90
13970;DHT22;7057;49.984;8.404;2022-10-30T15:49:23;19.70;99.90
13970;DHT22;7057;49.984;8.404;2022-10-30T15:51:53;19.60;99.90
13970;DHT22;7057;49.984;8.404;2022-10-30T15:54:21;19.50;99.90
13970;DHT22;7057;49.984;8.404;2022-10-30T15:56:53;19.30;99.90
13970;DHT22;7057;49.984;8.404;2022-10-30T15:59:23;19.20;99.90
13970;DHT22;7057;49.984;8.404;2022-10-30T16:01:53;19.10;99.90
13970;DHT22;7057;49.984;8.404;2022-10-30T16:04:22;19.00;99.90
13970;DHT22;7057;49.984;8.404;2022-10-30T16:06:52;18.90;99.90
13970;DHT22;7057;49.984;8.404;2022-10-30T16:09:20;18.70;99.90
13970;DHT22;7057;49.984;8.404;2022-10-30T16:11:49;18.60;99.90
13970;DHT22;7057;49.984;8.404;2022-10-30T16:14:20;18.50;99.90